Sorrell, Missouri
Current Conditions -  °F | °C
As of 8:55 PM on Saturday 20 Dec 2014 (Local Time) from KIRK Reporting Station
Haze Haze  
Wind Chill: 30°   Ceiling: 1900
Heat Index: 37°   Visibility: 4mi
Dew Point: 37°   Wind: 10mph
Humidity: 100%   Direction: 170°S
Pressure: 30.17"   Gusts: NA
Location:  40.1663°N, 93.1629°W
Report Text: KIRK 210255Z AUTO 17009KT 4SM BR OVC019 03/03 A3017 RMK AO2 SLP229 T00280028 58002
Loading
Personal Weather Stations






























Interactive Weather Map New forecast layout! Learn more

10-Day Weather Forecast

Advertisements
Track Severe Weather on mobile